createdAt,value
2023-10-06T00:00:15.113Z,51.08
2023-10-06T00:01:15.052Z,51.52
2023-10-06T00:02:15.048Z,53.14
2023-10-06T00:03:15.151Z,52.83
2023-10-06T00:04:14.958Z,53.47
2023-10-06T00:05:14.957Z,52.78
2023-10-06T00:06:14.963Z,53.77
2023-10-06T00:07:14.928Z,52.65
2023-10-06T00:08:14.951Z,54.46
2023-10-06T00:09:14.951Z,51.24
2023-10-06T00:10:14.923Z,49.29
2023-10-06T00:11:14.946Z,52.00
2023-10-06T00:12:14.940Z,53.97
2023-10-06T00:13:14.897Z,53.99
2023-10-06T00:14:14.909Z,53.28
2023-10-06T00:15:14.874Z,50.18
2023-10-06T00:16:15.057Z,49.74
2023-10-06T00:17:14.960Z,55.50
2023-10-06T00:18:14.868Z,54.00
2023-10-06T00:19:14.862Z,52.94
2023-10-06T00:20:14.859Z,54.02
2023-10-06T00:21:14.830Z,58.59
2023-10-06T00:22:14.825Z,56.31
2023-10-06T00:23:14.813Z,54.29
2023-10-06T00:24:15.846Z,56.85
2023-10-06T00:25:14.811Z,55.95
2023-10-06T00:26:14.806Z,53.79
2023-10-06T00:27:14.797Z,54.99
2023-10-06T00:28:14.795Z,50.32
2023-10-06T00:29:14.787Z,48.85
2023-10-06T00:30:14.782Z,50.00
2023-10-06T00:31:14.797Z,54.80
2023-10-06T00:32:14.943Z,54.77
2023-10-06T00:33:14.769Z,55.07
2023-10-06T00:34:14.745Z,56.22
2023-10-06T00:35:14.732Z,53.56
2023-10-06T00:36:14.815Z,48.83
2023-10-06T00:37:14.745Z,49.03
2023-10-06T00:38:14.728Z,55.71
2023-10-06T00:39:14.718Z,55.58
2023-10-06T00:40:14.721Z,54.91
2023-10-06T00:41:14.702Z,53.04
2023-10-06T00:42:14.695Z,54.32
2023-10-06T00:43:14.704Z,53.42
2023-10-06T00:44:14.687Z,56.73
2023-10-06T00:45:14.680Z,53.99
2023-10-06T00:46:14.684Z,53.89
2023-10-06T00:47:14.917Z,56.08
2023-10-06T00:48:14.810Z,55.75
2023-10-06T00:49:14.652Z,52.98
2023-10-06T00:50:14.656Z,55.60
2023-10-06T00:51:15.605Z,54.31
2023-10-06T00:52:14.655Z,51.78
2023-10-06T00:53:14.656Z,52.53
2023-10-06T00:54:14.633Z,52.62
2023-10-06T00:55:14.624Z,54.08
2023-10-06T00:56:14.675Z,55.60
2023-10-06T00:57:14.639Z,53.35
2023-10-06T00:58:14.600Z,55.42
2023-10-06T00:59:14.635Z,52.77
2023-10-06T01:00:14.575Z,56.27
2023-10-06T01:01:14.790Z,54.70
2023-10-06T01:02:14.593Z,55.02
2023-10-06T01:03:15.702Z,55.87
2023-10-06T01:04:14.656Z,55.39
2023-10-06T01:05:14.553Z,52.09
2023-10-06T01:06:14.567Z,53.12
2023-10-06T01:07:14.558Z,53.00
2023-10-06T01:08:14.530Z,54.60
2023-10-06T01:09:14.534Z,54.07
2023-10-06T01:10:14.520Z,54.89
2023-10-06T01:11:14.524Z,51.62
2023-10-06T01:12:14.526Z,51.33
2023-10-06T01:13:15.529Z,55.96
2023-10-06T01:14:14.485Z,55.81
2023-10-06T01:15:14.493Z,54.07
2023-10-06T01:16:14.528Z,53.20
2023-10-06T01:17:15.559Z,55.03
2023-10-06T01:18:14.506Z,53.97
2023-10-06T01:19:14.464Z,54.50
2023-10-06T01:20:14.549Z,51.84
2023-10-06T01:21:14.442Z,51.95
2023-10-06T01:22:14.435Z,51.41
2023-10-06T01:23:14.469Z,50.36
2023-10-06T01:24:14.446Z,51.18
2023-10-06T01:25:14.431Z,50.78
2023-10-06T01:26:14.426Z,54.49
2023-10-06T01:27:14.408Z,55.24
2023-10-06T01:28:14.492Z,53.83
2023-10-06T01:29:14.387Z,53.86
2023-10-06T01:30:14.382Z,51.68
2023-10-06T01:31:14.379Z,50.69
2023-10-06T01:32:15.381Z,52.14
2023-10-06T01:33:14.391Z,53.40
2023-10-06T01:34:14.357Z,50.78
2023-10-06T01:35:14.377Z,51.20
2023-10-06T01:36:14.444Z,54.21
2023-10-06T01:37:14.336Z,52.54
2023-10-06T01:38:14.339Z,49.97
2023-10-06T01:39:14.339Z,53.27
2023-10-06T01:40:14.315Z,53.48
2023-10-06T01:41:14.309Z,52.38
2023-10-06T01:42:14.305Z,52.92
2023-10-06T01:43:14.291Z,51.35
2023-10-06T01:44:14.391Z,52.15
2023-10-06T01:45:14.301Z,58.30
2023-10-06T01:46:14.289Z,55.33
2023-10-06T01:47:15.270Z,54.65
2023-10-06T01:48:14.272Z,53.50
2023-10-06T01:49:14.840Z,51.99
2023-10-06T01:50:15.251Z,51.15
2023-10-06T01:51:14.250Z,50.99
2023-10-06T01:52:14.340Z,50.91
2023-10-06T01:53:14.224Z,52.26
2023-10-06T01:54:14.268Z,50.75
2023-10-06T01:55:14.247Z,50.07
2023-10-06T01:56:14.226Z,52.55
2023-10-06T01:57:14.214Z,52.10
2023-10-06T01:58:14.197Z,52.47
2023-10-06T01:59:14.209Z,54.84
2023-10-06T02:00:14.204Z,55.82
2023-10-06T02:01:14.208Z,53.11
2023-10-06T02:02:14.552Z,51.94
2023-10-06T02:03:14.247Z,54.93
2023-10-06T02:04:14.169Z,55.31
2023-10-06T02:05:14.194Z,55.12
2023-10-06T02:06:14.180Z,52.66
2023-10-06T02:07:14.169Z,49.91
2023-10-06T02:08:14.236Z,53.43
2023-10-06T02:09:14.124Z,54.27
2023-10-06T02:10:14.132Z,54.36
2023-10-06T02:11:14.220Z,54.08
2023-10-06T02:12:14.211Z,55.25
2023-10-06T02:13:14.149Z,54.16
2023-10-06T02:14:14.094Z,57.50
2023-10-06T02:15:14.084Z,52.01
2023-10-06T02:16:14.187Z,55.12
2023-10-06T02:17:14.184Z,57.07
2023-10-06T02:18:14.126Z,51.34
2023-10-06T02:19:14.069Z,48.59
2023-10-06T02:20:14.076Z,52.59
2023-10-06T02:21:14.071Z,52.73
2023-10-06T02:22:14.084Z,55.95
2023-10-06T02:23:14.063Z,53.95
2023-10-06T02:24:14.143Z,56.75
2023-10-06T02:25:14.068Z,57.71
2023-10-06T02:26:14.019Z,56.56
2023-10-06T02:27:14.019Z,51.26
2023-10-06T02:28:14.001Z,56.35
2023-10-06T02:29:14.030Z,61.93
2023-10-06T02:30:13.988Z,56.89
2023-10-06T02:31:14.100Z,57.58
2023-10-06T02:32:14.012Z,55.60
2023-10-06T02:33:13.973Z,54.30
2023-10-06T02:34:13.988Z,56.84
2023-10-06T02:35:14.188Z,58.43
2023-10-06T02:36:13.977Z,56.60
2023-10-06T02:37:13.958Z,56.43
2023-10-06T02:38:13.934Z,55.70
2023-10-06T02:39:13.932Z,58.74
2023-10-06T02:40:14.031Z,54.95
2023-10-06T02:41:13.933Z,57.48
2023-10-06T02:42:13.911Z,55.74
2023-10-06T02:43:13.921Z,57.92
2023-10-06T02:44:13.900Z,56.89
2023-10-06T02:45:13.885Z,58.04
2023-10-06T02:46:13.880Z,58.21
2023-10-06T02:47:13.916Z,55.03
2023-10-06T02:48:13.893Z,57.33
2023-10-06T02:49:13.888Z,60.20
2023-10-06T02:50:13.904Z,59.57
2023-10-06T02:51:13.845Z,60.28
2023-10-06T02:52:13.859Z,59.54
2023-10-06T02:53:13.864Z,58.99
2023-10-06T02:54:13.882Z,55.39
2023-10-06T02:55:13.833Z,57.24
2023-10-06T02:56:13.917Z,57.90
2023-10-06T02:57:13.809Z,57.44
2023-10-06T02:58:13.818Z,55.87
2023-10-06T02:59:13.842Z,57.56
2023-10-06T03:00:13.812Z,59.29
2023-10-06T03:01:13.810Z,56.09
2023-10-06T03:02:13.885Z,56.28
2023-10-06T03:03:14.115Z,56.73
2023-10-06T03:04:13.761Z,57.61
2023-10-06T03:05:13.776Z,57.08
2023-10-06T03:06:13.757Z,58.16
2023-10-06T03:07:13.756Z,56.56
2023-10-06T03:08:13.763Z,56.96
2023-10-06T03:09:13.746Z,55.39
2023-10-06T03:10:13.739Z,59.68
2023-10-06T03:11:13.814Z,58.47
2023-10-06T03:12:13.808Z,57.96
2023-10-06T03:13:13.704Z,58.08
2023-10-06T03:14:13.719Z,60.34
2023-10-06T03:15:13.684Z,58.32
2023-10-06T03:16:13.712Z,58.30
2023-10-06T03:17:14.881Z,59.20
2023-10-06T03:18:13.745Z,59.82
2023-10-06T03:19:13.683Z,59.40
2023-10-06T03:20:13.734Z,59.49
2023-10-06T03:21:13.655Z,59.12
2023-10-06T03:22:13.724Z,58.63
2023-10-06T03:23:13.666Z,59.21
2023-10-06T03:24:13.630Z,60.09
2023-10-06T03:25:13.625Z,59.60
2023-10-06T03:26:13.667Z,60.53
2023-10-06T03:27:13.641Z,60.65
2023-10-06T03:28:13.725Z,61.90
2023-10-06T03:29:13.640Z,60.84
2023-10-06T03:30:13.599Z,61.63
2023-10-06T03:31:13.583Z,60.16
2023-10-06T03:32:13.582Z,61.12
2023-10-06T03:33:14.589Z,61.88
2023-10-06T03:34:13.561Z,62.06
2023-10-06T03:35:13.572Z,61.14
2023-10-06T03:36:13.556Z,59.85
2023-10-06T03:37:13.623Z,62.56
2023-10-06T03:38:13.552Z,61.83
2023-10-06T03:39:13.535Z,61.58
2023-10-06T03:40:13.533Z,61.15
2023-10-06T03:41:13.534Z,61.82
2023-10-06T03:42:13.528Z,61.46
2023-10-06T03:43:13.517Z,62.45
2023-10-06T03:44:13.781Z,61.25
2023-10-06T03:45:13.501Z,61.08
2023-10-06T03:46:13.643Z,61.49
2023-10-06T03:47:13.511Z,61.99
2023-10-06T03:48:13.493Z,60.92
2023-10-06T03:49:13.477Z,61.38
2023-10-06T03:50:13.505Z,60.56
2023-10-06T03:51:13.460Z,63.29
2023-10-06T03:52:13.448Z,61.63
2023-10-06T03:53:13.563Z,61.58
2023-10-06T03:54:13.458Z,62.64
2023-10-06T03:55:13.447Z,60.82
2023-10-06T03:56:13.450Z,61.14
2023-10-06T03:57:13.422Z,58.86
2023-10-06T03:58:13.430Z,60.21
2023-10-06T03:59:13.440Z,60.95
2023-10-06T04:00:13.508Z,60.02
2023-10-06T04:01:13.400Z,60.35
2023-10-06T04:02:13.542Z,62.34
2023-10-06T04:03:13.515Z,60.80
2023-10-06T04:04:13.368Z,62.01
2023-10-06T04:05:13.380Z,60.02
2023-10-06T04:06:13.369Z,60.32
2023-10-06T04:07:13.389Z,61.29
2023-10-06T04:08:13.395Z,61.31
2023-10-06T04:09:13.347Z,62.37
2023-10-06T04:10:13.354Z,61.78
2023-10-06T04:11:13.424Z,63.15
2023-10-06T04:12:13.329Z,62.22
2023-10-06T04:13:13.343Z,60.92
2023-10-06T04:14:13.343Z,62.20
2023-10-06T04:15:13.311Z,62.19
2023-10-06T04:16:13.390Z,63.01
2023-10-06T04:17:13.323Z,61.64
2023-10-06T04:18:13.290Z,63.43
2023-10-06T04:19:13.277Z,61.90
2023-10-06T04:20:13.331Z,62.93
2023-10-06T04:21:13.272Z,62.29
2023-10-06T04:22:13.326Z,62.07
2023-10-06T04:23:13.282Z,60.49
2023-10-06T04:24:13.245Z,61.14
2023-10-06T04:25:13.253Z,60.39
2023-10-06T04:26:14.291Z,61.09
2023-10-06T04:27:13.243Z,63.09
2023-10-06T04:28:13.299Z,63.67
2023-10-06T04:29:13.308Z,62.31
2023-10-06T04:30:13.223Z,62.49
2023-10-06T04:31:13.232Z,62.60
2023-10-06T04:32:13.295Z,62.91
2023-10-06T04:33:13.202Z,63.09
2023-10-06T04:34:13.185Z,63.06
2023-10-06T04:35:13.223Z,64.10
2023-10-06T04:36:13.184Z,62.98
2023-10-06T04:37:13.157Z,62.62
2023-10-06T04:38:13.186Z,63.72
2023-10-06T04:39:13.140Z,62.32
2023-10-06T04:40:13.164Z,62.78
2023-10-06T04:41:13.175Z,64.15
2023-10-06T04:42:13.128Z,63.99
2023-10-06T04:43:13.293Z,63.57
2023-10-06T04:44:13.128Z,63.94
2023-10-06T04:45:13.101Z,64.02
2023-10-06T04:46:13.109Z,62.82
2023-10-06T04:47:13.114Z,63.49
2023-10-06T04:48:13.174Z,64.09
2023-10-06T04:49:13.091Z,64.46
2023-10-06T04:50:13.161Z,64.30
2023-10-06T04:51:15.971Z,63.64
2023-10-06T04:54:24.783Z,63.37
2023-10-06T04:55:25.722Z,63.01
2023-10-06T04:56:22.992Z,63.29
2023-10-06T04:57:23.004Z,62.12
2023-10-06T04:58:24.720Z,62.92
2023-10-06T04:59:24.072Z,62.62
2023-10-06T05:00:22.958Z,63.25
2023-10-06T05:01:22.969Z,60.54
2023-10-06T05:02:22.990Z,63.78
2023-10-06T05:03:23.109Z,62.21
2023-10-06T05:04:23.844Z,61.94
2023-10-06T05:05:24.564Z,62.22
2023-10-06T05:06:24.692Z,63.48
2023-10-06T05:07:24.719Z,62.43
2023-10-06T05:08:24.033Z,63.50
2023-10-06T05:09:22.909Z,62.77
2023-10-06T05:10:22.903Z,62.30
2023-10-06T05:11:23.017Z,62.76
2023-10-06T05:12:22.885Z,62.52
2023-10-06T05:13:22.877Z,63.09
2023-10-06T05:14:22.886Z,63.30
2023-10-06T05:15:22.877Z,62.21
2023-10-06T05:16:22.916Z,62.98
2023-10-06T05:17:22.893Z,62.35
2023-10-06T05:18:22.860Z,63.12
2023-10-06T05:19:22.936Z,63.33
2023-10-06T05:20:22.835Z,63.59
2023-10-06T05:21:22.835Z,64.89
2023-10-06T05:22:22.820Z,63.35
2023-10-06T05:23:22.811Z,62.90
2023-10-06T05:24:22.829Z,62.77
2023-10-06T05:25:22.810Z,64.83
2023-10-06T05:26:22.827Z,64.20
2023-10-06T05:27:22.795Z,64.37
2023-10-06T05:28:22.780Z,63.08
2023-10-06T05:29:22.829Z,63.37
2023-10-06T05:30:22.769Z,63.71
2023-10-06T05:31:22.783Z,63.24
2023-10-06T05:32:22.819Z,63.15
2023-10-06T05:33:22.773Z,63.86
2023-10-06T05:34:22.742Z,60.91
2023-10-06T05:35:22.825Z,62.94
2023-10-06T05:36:22.744Z,64.30
2023-10-06T05:37:22.706Z,63.24
2023-10-06T05:38:22.727Z,63.12
2023-10-06T05:39:22.704Z,64.22
2023-10-06T05:40:22.695Z,63.34
2023-10-06T05:41:22.760Z,65.03
2023-10-06T05:42:22.679Z,65.11
2023-10-06T05:43:23.687Z,64.33
2023-10-06T05:44:22.768Z,64.72
2023-10-06T05:45:22.687Z,61.79
2023-10-06T05:46:22.742Z,62.32
2023-10-06T05:47:22.665Z,63.21
2023-10-06T05:48:22.650Z,63.08
2023-10-06T05:49:22.652Z,63.95
2023-10-06T05:50:22.644Z,63.61
2023-10-06T05:51:22.879Z,65.34
2023-10-06T05:52:22.624Z,62.30
2023-10-06T05:53:22.655Z,62.29
2023-10-06T05:54:22.613Z,61.97
2023-10-06T05:55:22.624Z,63.77
2023-10-06T05:56:22.640Z,63.08
2023-10-06T05:57:22.587Z,62.98
2023-10-06T05:58:22.576Z,62.57
2023-10-06T05:59:22.600Z,64.05
2023-10-06T06:00:22.574Z,62.25
2023-10-06T06:01:22.613Z,60.97
2023-10-06T06:02:22.570Z,62.07
2023-10-06T06:03:22.591Z,61.10
2023-10-06T06:04:22.543Z,59.72
2023-10-06T06:05:22.536Z,61.30
2023-10-06T06:06:22.521Z,62.35
2023-10-06T06:07:22.653Z,61.02
2023-10-06T06:08:22.520Z,62.67
2023-10-06T06:09:22.832Z,60.10
2023-10-06T06:10:22.502Z,61.29
2023-10-06T06:11:22.674Z,61.34
2023-10-06T06:12:22.603Z,62.46
2023-10-06T06:13:23.262Z,61.24
2023-10-06T06:14:23.484Z,62.12
2023-10-06T06:15:22.469Z,61.92
2023-10-06T06:16:22.510Z,60.37
2023-10-06T06:17:22.473Z,61.70
2023-10-06T06:18:22.474Z,60.15
2023-10-06T06:19:22.432Z,61.49
2023-10-06T06:20:22.462Z,62.24
2023-10-06T06:21:22.424Z,59.35
2023-10-06T06:22:22.419Z,61.37
2023-10-06T06:23:22.561Z,61.63
2023-10-06T06:24:22.416Z,61.39
2023-10-06T06:25:22.402Z,62.47
2023-10-06T06:26:22.421Z,62.67
2023-10-06T06:27:22.387Z,61.51
2023-10-06T06:28:22.381Z,60.98
2023-10-06T06:29:22.414Z,60.18
2023-10-06T06:30:22.367Z,60.07
2023-10-06T06:31:22.443Z,62.31
2023-10-06T06:32:22.373Z,61.53
2023-10-06T06:33:22.352Z,60.89
2023-10-06T06:34:22.362Z,59.56
2023-10-06T06:35:22.342Z,60.92
2023-10-06T06:36:22.355Z,59.34
2023-10-06T06:37:22.321Z,60.19
2023-10-06T06:38:22.433Z,61.16
2023-10-06T06:39:23.907Z,60.78
2023-10-06T06:40:22.307Z,59.18
2023-10-06T06:41:22.332Z,60.59
2023-10-06T06:42:22.299Z,59.95
2023-10-06T06:43:22.293Z,58.80
2023-10-06T06:44:22.289Z,58.01
2023-10-06T06:45:22.300Z,58.81
2023-10-06T06:46:22.261Z,59.88
2023-10-06T06:47:22.301Z,58.60
2023-10-06T06:48:22.275Z,60.47
2023-10-06T06:49:22.256Z,61.29
2023-10-06T06:50:22.266Z,59.78
2023-10-06T06:51:22.232Z,59.08
2023-10-06T06:52:22.224Z,62.21
2023-10-06T06:53:22.222Z,59.90
2023-10-06T06:54:22.213Z,59.85
2023-10-06T06:55:22.304Z,61.30
2023-10-06T06:56:22.300Z,60.20
2023-10-06T06:57:22.193Z,59.16
2023-10-06T06:58:22.176Z,60.39
2023-10-06T06:59:22.199Z,59.27
2023-10-06T07:00:22.176Z,59.11
2023-10-06T07:01:22.372Z,59.39
2023-10-06T07:02:22.228Z,59.90
2023-10-06T07:03:22.173Z,59.17
2023-10-06T07:04:22.146Z,59.18
2023-10-06T07:05:22.138Z,58.76
2023-10-06T07:06:22.151Z,59.21
2023-10-06T07:07:22.130Z,61.60
2023-10-06T07:08:22.171Z,59.10
2023-10-06T07:09:22.127Z,60.47
2023-10-06T07:10:22.127Z,59.77
2023-10-06T07:11:22.264Z,59.79
2023-10-06T07:12:22.108Z,58.06
2023-10-06T07:13:22.090Z,58.83
2023-10-06T07:14:22.106Z,60.31
2023-10-06T07:15:22.076Z,58.30
2023-10-06T07:16:22.084Z,58.71
2023-10-06T07:17:22.113Z,58.37
2023-10-06T07:18:22.133Z,59.59
2023-10-06T07:19:22.056Z,58.40
2023-10-06T07:20:22.111Z,59.89
2023-10-06T07:21:22.070Z,58.34
2023-10-06T07:22:22.026Z,60.31
2023-10-06T07:23:22.057Z,61.27
2023-10-06T07:24:22.012Z,60.46
2023-10-06T07:25:22.013Z,58.14
2023-10-06T07:26:22.039Z,58.14
2023-10-06T07:27:22.114Z,61.11
2023-10-06T07:28:21.992Z,61.19
2023-10-06T07:29:22.028Z,59.09
2023-10-06T07:30:22.078Z,56.12
2023-10-06T07:31:22.023Z,60.16
2023-10-06T07:32:21.991Z,60.26
2023-10-06T07:33:22.046Z,60.67
2023-10-06T07:34:21.947Z,60.37
2023-10-06T07:35:21.977Z,60.90
2023-10-06T07:36:21.958Z,59.65
2023-10-06T07:37:21.932Z,58.81
2023-10-06T07:38:21.952Z,60.90
2023-10-06T07:39:22.165Z,63.31
2023-10-06T07:40:21.936Z,63.12
2023-10-06T07:41:21.980Z,61.38
2023-10-06T07:42:21.900Z,57.50
2023-10-06T07:43:21.992Z,58.33
2023-10-06T07:44:21.911Z,60.64
2023-10-06T07:45:23.514Z,60.24
2023-10-06T07:46:21.955Z,60.08
2023-10-06T07:47:21.919Z,60.40
2023-10-06T07:48:21.858Z,60.38
2023-10-06T07:49:21.859Z,59.67
2023-10-06T07:50:21.903Z,61.10
2023-10-06T07:51:21.848Z,60.98
2023-10-06T07:52:21.830Z,60.89
2023-10-06T07:53:21.839Z,60.92
2023-10-06T07:54:21.823Z,60.61
2023-10-06T07:55:21.820Z,61.13
2023-10-06T07:56:21.880Z,60.95
2023-10-06T07:57:21.798Z,61.01
2023-10-06T07:58:21.789Z,61.22
2023-10-06T07:59:21.947Z,59.89
2023-10-06T08:00:21.792Z,60.94
2023-10-06T08:01:22.253Z,60.74
2023-10-06T08:02:21.784Z,59.96
2023-10-06T08:03:21.809Z,59.53
2023-10-06T08:04:21.741Z,59.77
2023-10-06T08:05:21.798Z,60.38
2023-10-06T08:06:21.808Z,60.96
2023-10-06T08:07:21.735Z,59.92
2023-10-06T08:08:22.722Z,59.66
2023-10-06T08:09:21.727Z,60.92
2023-10-06T08:10:21.708Z,58.16
2023-10-06T08:11:22.966Z,60.21
2023-10-06T08:12:22.694Z,58.93
2023-10-06T08:13:21.689Z,60.83
2023-10-06T08:14:21.687Z,59.49
2023-10-06T08:15:21.901Z,60.09
2023-10-06T08:16:21.715Z,59.96
2023-10-06T08:17:21.840Z,60.74
2023-10-06T08:18:21.654Z,58.47
2023-10-06T08:19:21.694Z,58.38
2023-10-06T08:20:21.693Z,60.37
2023-10-06T08:21:21.659Z,59.75
2023-10-06T08:22:21.674Z,59.80
2023-10-06T08:23:21.666Z,60.62
2023-10-06T08:24:21.627Z,59.81
2023-10-06T08:25:21.616Z,58.79
2023-10-06T08:26:21.626Z,62.00
2023-10-06T08:27:21.632Z,61.90
2023-10-06T08:28:21.616Z,60.49
2023-10-06T08:29:21.626Z,61.64
2023-10-06T08:30:21.782Z,59.33
2023-10-06T08:31:21.711Z,59.08
2023-10-06T08:32:21.601Z,61.32
2023-10-06T08:33:21.740Z,60.92
2023-10-06T08:34:21.570Z,61.01
2023-10-06T08:35:22.759Z,59.19
2023-10-06T08:36:23.686Z,60.26
2023-10-06T08:37:23.189Z,60.21
2023-10-06T08:38:21.594Z,59.54
2023-10-06T08:39:21.527Z,59.85
2023-10-06T08:40:21.530Z,59.55
2023-10-06T08:41:21.691Z,59.39
2023-10-06T08:42:21.510Z,60.12
2023-10-06T08:43:21.499Z,59.37
2023-10-06T08:44:21.500Z,59.64
2023-10-06T08:45:21.634Z,60.78
2023-10-06T08:46:21.561Z,60.45
2023-10-06T08:47:29.638Z,58.70
2023-10-06T08:48:23.499Z,59.67
2023-10-06T08:49:21.476Z,60.64
2023-10-06T08:50:21.482Z,61.07
2023-10-06T08:51:21.445Z,61.42
2023-10-06T08:52:21.440Z,60.53
2023-10-06T08:53:21.444Z,58.73
2023-10-06T08:54:21.425Z,59.29
2023-10-06T08:55:21.405Z,59.15
2023-10-06T08:56:21.422Z,60.31
2023-10-06T08:57:21.395Z,59.75
2023-10-06T08:58:21.445Z,61.26
2023-10-06T08:59:21.503Z,60.74
2023-10-06T09:00:21.397Z,60.87
2023-10-06T09:01:21.384Z,59.81
2023-10-06T09:02:21.423Z,59.20
2023-10-06T09:03:21.560Z,61.59
2023-10-06T09:04:21.374Z,60.55
2023-10-06T09:05:21.423Z,60.18
2023-10-06T09:06:21.322Z,61.26
2023-10-06T09:07:21.321Z,59.95
2023-10-06T09:08:21.350Z,60.78
2023-10-06T09:09:21.338Z,60.66
2023-10-06T09:10:21.317Z,58.55
2023-10-06T09:11:21.361Z,60.01
2023-10-06T09:12:21.295Z,60.35
2023-10-06T09:13:21.283Z,61.06
2023-10-06T09:14:21.300Z,59.94
2023-10-06T09:15:21.274Z,58.70
2023-10-06T09:16:21.344Z,59.42
2023-10-06T09:17:21.292Z,58.82
2023-10-06T09:18:21.266Z,58.92
2023-10-06T09:19:21.353Z,59.57
2023-10-06T09:20:30.336Z,60.32
2023-10-06T09:21:23.249Z,59.03
2023-10-06T09:22:21.222Z,59.18
2023-10-06T09:23:21.333Z,59.68
2023-10-06T09:24:21.214Z,60.64
2023-10-06T09:25:21.228Z,60.04
2023-10-06T09:26:22.286Z,61.21
2023-10-06T09:27:21.191Z,61.01
2023-10-06T09:28:21.187Z,60.33
2023-10-06T09:29:21.327Z,59.04
2023-10-06T09:30:21.166Z,60.60
2023-10-06T09:31:21.215Z,60.92
2023-10-06T09:32:21.202Z,59.65
2023-10-06T09:33:21.145Z,59.14
2023-10-06T09:34:21.159Z,60.82
2023-10-06T09:35:21.291Z,62.68
2023-10-06T09:36:36.296Z,60.10
2023-10-06T09:37:23.127Z,58.29
2023-10-06T09:38:21.241Z,58.70
2023-10-06T09:39:21.178Z,59.57
2023-10-06T09:40:21.309Z,59.87
2023-10-06T09:41:21.154Z,59.60
2023-10-06T09:42:21.088Z,60.67
2023-10-06T09:43:22.676Z,60.84
2023-10-06T09:44:22.142Z,60.82
2023-10-06T09:45:21.094Z,60.30
2023-10-06T09:46:21.106Z,60.02
2023-10-06T09:47:21.073Z,59.82
2023-10-06T09:48:21.198Z,58.21
2023-10-06T09:49:21.035Z,59.71
2023-10-06T09:50:21.090Z,59.68
2023-10-06T09:51:21.126Z,59.68
2023-10-06T09:52:21.030Z,60.40
2023-10-06T09:53:21.098Z,59.78
2023-10-06T09:54:21.012Z,59.93
2023-10-06T09:55:21.000Z,60.35
2023-10-06T09:56:21.039Z,60.34
2023-10-06T09:57:20.979Z,59.63
2023-10-06T09:58:20.970Z,59.85
2023-10-06T09:59:20.986Z,58.66
2023-10-06T10:00:20.955Z,59.36
2023-10-06T10:01:21.016Z,58.29
2023-10-06T10:02:21.067Z,60.43
2023-10-06T10:03:21.049Z,59.83
2023-10-06T10:04:20.979Z,60.39
2023-10-06T10:05:20.959Z,59.32
2023-10-06T10:06:20.931Z,60.00
2023-10-06T10:07:21.087Z,61.82
2023-10-06T10:08:20.948Z,58.74
2023-10-06T10:09:20.892Z,58.28
2023-10-06T10:10:20.903Z,59.39
2023-10-06T10:11:20.973Z,60.37
2023-10-06T10:12:20.893Z,59.84
2023-10-06T10:13:20.879Z,59.63
2023-10-06T10:14:20.895Z,60.14
2023-10-06T10:15:22.264Z,58.32
2023-10-06T10:16:20.872Z,59.79
2023-10-06T10:17:20.980Z,58.86
2023-10-06T10:18:20.872Z,58.61
2023-10-06T10:19:20.823Z,60.44
2023-10-06T10:20:20.871Z,58.61
2023-10-06T10:21:20.818Z,57.77
2023-10-06T10:22:20.809Z,59.62
2023-10-06T10:23:20.962Z,58.72
2023-10-06T10:25:05.516Z,59.53
2023-10-06T10:25:25.301Z,60.42
2023-10-06T10:26:21.807Z,60.98
2023-10-06T10:27:20.784Z,59.61
2023-10-06T10:28:20.959Z,58.08
2023-10-06T10:29:20.778Z,59.65
2023-10-06T10:30:20.815Z,59.12
2023-10-06T10:31:20.767Z,59.25
2023-10-06T10:32:20.773Z,58.58
2023-10-06T10:33:20.871Z,58.80
2023-10-06T10:34:25.004Z,58.76
2023-10-06T10:35:21.858Z,58.74
2023-10-06T10:36:20.722Z,58.77
2023-10-06T10:37:20.719Z,57.39
2023-10-06T10:38:20.746Z,59.80
2023-10-06T10:39:20.849Z,59.80
2023-10-06T10:40:20.719Z,58.66
2023-10-06T10:41:20.703Z,61.27
2023-10-06T10:42:20.690Z,59.74
2023-10-06T10:43:20.673Z,58.84
2023-10-06T10:44:26.527Z,58.74
2023-10-06T10:45:22.670Z,59.41
2023-10-06T10:46:20.670Z,59.23
2023-10-06T10:47:20.696Z,61.36
2023-10-06T10:48:20.675Z,57.58
2023-10-06T10:49:20.634Z,59.34
2023-10-06T10:50:20.751Z,58.65
2023-10-06T10:51:20.629Z,60.24
2023-10-06T10:52:20.619Z,60.11
2023-10-06T10:53:20.641Z,58.88
2023-10-06T10:54:20.602Z,59.05
2023-10-06T10:55:20.722Z,59.78
2023-10-06T10:56:20.657Z,59.27
2023-10-06T10:57:20.598Z,59.31
2023-10-06T10:58:20.590Z,59.18
2023-10-06T10:59:20.592Z,57.84
2023-10-06T11:00:20.569Z,60.03
2023-10-06T11:01:20.575Z,60.39
2023-10-06T11:02:20.589Z,58.75
2023-10-06T11:03:20.657Z,59.72
2023-10-06T11:04:20.538Z,59.72
2023-10-06T11:05:20.644Z,57.54
2023-10-06T11:06:20.532Z,58.80
2023-10-06T11:07:20.538Z,59.05
2023-10-06T11:08:20.557Z,56.98
2023-10-06T11:09:20.513Z,58.28
2023-10-06T11:10:20.514Z,59.58
2023-10-06T11:11:20.549Z,58.79
2023-10-06T11:12:24.836Z,59.66
2023-10-06T11:13:22.500Z,59.73
2023-10-06T11:14:20.543Z,59.99
2023-10-06T11:15:20.530Z,59.53
2023-10-06T11:16:20.571Z,60.86
2023-10-06T11:17:20.667Z,59.01
2023-10-06T11:18:20.705Z,60.12
2023-10-06T11:19:20.491Z,59.18
2023-10-06T11:20:20.509Z,60.05
2023-10-06T11:21:20.515Z,60.09
2023-10-06T11:22:20.510Z,59.15
2023-10-06T11:23:20.518Z,59.74
2023-10-06T11:24:20.411Z,61.25
2023-10-06T11:25:20.443Z,60.14
2023-10-06T11:26:20.443Z,59.29
2023-10-06T11:27:20.419Z,61.93
2023-10-06T11:28:20.513Z,60.58
2023-10-06T11:29:20.479Z,61.10
2023-10-06T11:30:20.490Z,58.99
2023-10-06T11:31:20.373Z,60.43
2023-10-06T11:32:20.448Z,61.07
2023-10-06T11:33:20.437Z,59.87
2023-10-06T11:34:20.424Z,60.57
2023-10-06T11:35:20.369Z,59.33
2023-10-06T11:36:20.412Z,59.52
2023-10-06T11:37:21.928Z,59.58
2023-10-06T11:38:21.127Z,59.95
2023-10-06T11:39:20.439Z,59.51
2023-10-06T11:40:20.335Z,59.88
2023-10-06T11:41:20.390Z,61.46
2023-10-06T11:42:20.303Z,60.53
2023-10-06T11:43:20.409Z,60.04
2023-10-06T11:44:20.302Z,59.75
2023-10-06T11:45:20.310Z,62.12
2023-10-06T11:46:20.275Z,61.26
2023-10-06T11:47:20.320Z,59.57
2023-10-06T11:48:20.288Z,60.11
2023-10-06T11:49:20.283Z,60.56
2023-10-06T11:50:20.314Z,62.41
2023-10-06T11:51:20.284Z,61.11
2023-10-06T11:52:20.254Z,61.72
2023-10-06T11:53:20.259Z,61.57
2023-10-06T11:54:20.235Z,61.10
2023-10-06T11:55:20.241Z,62.27
2023-10-06T11:56:20.282Z,62.43
2023-10-06T11:57:20.209Z,61.77
2023-10-06T11:58:20.202Z,61.57
2023-10-06T11:59:20.337Z,62.05
2023-10-06T12:00:20.221Z,60.92
2023-10-06T12:01:20.238Z,59.73
2023-10-06T12:02:20.230Z,59.21
2023-10-06T12:03:20.198Z,60.15
2023-10-06T12:04:20.221Z,58.61
2023-10-06T12:05:20.259Z,59.56
2023-10-06T12:06:20.173Z,59.26
2023-10-06T12:07:20.141Z,60.08
2023-10-06T12:08:20.176Z,59.72
2023-10-06T12:09:20.140Z,60.86
2023-10-06T12:10:20.148Z,60.38
2023-10-06T12:11:20.225Z,60.43
2023-10-06T12:12:20.119Z,60.43
2023-10-06T12:13:20.124Z,59.52
2023-10-06T12:14:20.141Z,59.60
2023-10-06T12:15:20.217Z,59.17
2023-10-06T12:16:20.106Z,59.04
2023-10-06T12:17:20.110Z,58.57
2023-10-06T12:18:20.135Z,59.91
2023-10-06T12:19:20.092Z,62.50
2023-10-06T12:20:20.249Z,60.08
2023-10-06T12:21:20.057Z,61.16
2023-10-06T12:22:30.052Z,58.44
2023-10-06T12:23:22.224Z,60.99
2023-10-06T12:24:20.042Z,59.29
2023-10-06T12:25:20.052Z,59.46
2023-10-06T12:26:20.059Z,60.28
2023-10-06T12:27:20.023Z,59.04
2023-10-06T12:28:20.019Z,59.79
2023-10-06T12:29:20.037Z,60.04
2023-10-06T12:30:20.049Z,61.16
2023-10-06T12:31:20.118Z,62.52
2023-10-06T12:32:20.034Z,61.59
2023-10-06T12:33:20.008Z,60.76
2023-10-06T12:34:20.000Z,61.36
2023-10-06T12:35:20.227Z,62.28
2023-10-06T12:36:19.972Z,62.79
2023-10-06T12:37:19.953Z,61.50
2023-10-06T12:38:19.972Z,61.19
2023-10-06T12:39:19.945Z,60.67
2023-10-06T12:40:19.933Z,61.52
2023-10-06T12:41:19.933Z,62.10
2023-10-06T12:42:19.915Z,60.62
2023-10-06T12:43:19.940Z,61.03
2023-10-06T12:44:19.918Z,60.37
2023-10-06T12:45:20.140Z,61.06
2023-10-06T12:46:19.906Z,61.28
2023-10-06T12:47:20.001Z,60.03
2023-10-06T12:48:19.920Z,61.38
2023-10-06T12:49:19.914Z,59.56
2023-10-06T12:50:20.019Z,60.76
2023-10-06T12:51:19.873Z,60.48
2023-10-06T12:52:19.852Z,60.04
2023-10-06T12:53:19.916Z,59.39
2023-10-06T12:54:19.864Z,61.69